Time;durP1;ratioP1;P1;durP2;ratioP2;P2;SDS_P1;SDS_P2;PMS_P1;PMS_P2;Temp;Humidity;BMP_temperature;BMP_pressure;BME280_temperature;BME280_humidity;BME280_pressure;Samples;Min_cycle;Max_cycle;Signal;HPM_P1;HPM_P2
2022/05/10 00:01:34;;;;;;;6.93;6.25;;;13.20;99.90;;;;;;5062750;28;20565;-74
2022/05/10 00:04:01;;;;;;;7.22;6.50;;;13.10;99.90;;;;;;5058747;28;20116;-75
2022/05/10 00:06:32;;;;;;;7.05;6.38;;;13.10;99.90;;;;;;5058547;28;20482;-75
2022/05/10 00:08:57;;;;;;;7.15;6.35;;;13.10;99.90;;;;;;5063583;28;20522;-75
2022/05/10 00:11:23;;;;;;;7.97;7.18;;;13.10;99.90;;;;;;5064462;28;20032;-76
2022/05/10 00:13:48;;;;;;;7.20;6.38;;;13.00;99.90;;;;;;5061397;28;20035;-76
2022/05/10 00:16:15;;;;;;;8.10;6.93;;;13.00;99.90;;;;;;5059556;28;20025;-76
2022/05/10 00:18:42;;;;;;;7.55;6.75;;;12.90;99.90;;;;;;5063527;28;20029;-76
2022/05/10 00:21:10;;;;;;;7.53;6.78;;;13.00;99.90;;;;;;5067575;28;20457;-75
2022/05/10 00:23:35;;;;;;;7.82;6.65;;;13.10;99.90;;;;;;5071726;28;20036;-76
2022/05/10 00:26:01;;;;;;;7.80;7.00;;;13.00;99.90;;;;;;5059219;28;20013;-76
2022/05/10 00:28:26;;;;;;;7.63;6.90;;;13.00;99.90;;;;;;5071752;28;20048;-75
2022/05/10 00:30:52;;;;;;;7.40;6.70;;;13.10;99.90;;;;;;5070438;28;20410;-76
2022/05/10 00:33:21;;;;;;;7.38;6.68;;;13.00;99.90;;;;;;5059755;28;20062;-76
2022/05/10 00:35:47;;;;;;;8.95;7.53;;;13.00;99.90;;;;;;5056643;28;20372;-76
2022/05/10 00:38:13;;;;;;;8.32;6.70;;;13.00;99.90;;;;;;5052601;28;20045;-76
2022/05/10 00:40:38;;;;;;;8.57;7.55;;;13.10;99.90;;;;;;5052860;28;20379;-76
2022/05/10 00:43:31;;;;;;;8.18;6.70;;;13.10;99.90;;;;;;5075621;28;20033;-76
2022/05/10 00:46:37;;;;;;;8.95;7.60;;;13.00;99.90;;;;;;5060333;28;20475;-76
2022/05/10 00:49:16;;;;;;;7.25;6.55;;;12.90;99.90;;;;;;5054820;28;20433;-76
2022/05/10 00:52:03;;;;;;;10.82;7.28;;;12.80;99.90;;;;;;5078888;28;20017;-75
2022/05/10 00:54:33;;;;;;;7.35;6.55;;;12.70;99.90;;;;;;5060056;28;20020;-75
2022/05/10 00:57:24;;;;;;;8.20;6.90;;;12.70;99.90;;;;;;5054265;28;20028;-75
2022/05/10 01:00:05;;;;;;;8.07;6.95;;;12.90;99.90;;;;;;5063245;28;20020;-75
2022/05/10 01:02:46;;;;;;;7.72;6.43;;;12.90;99.90;;;;;;5060062;28;20482;-75
2022/05/10 01:05:35;;;;;;;8.07;7.10;;;12.80;99.90;;;;;;5066725;28;20445;-76
2022/05/10 01:08:13;;;;;;;8.85;7.00;;;12.80;99.90;;;;;;5065583;28;20025;-75
2022/05/10 01:10:43;;;;;;;8.23;7.10;;;12.80;99.90;;;;;;5060776;28;20025;-75
2022/05/10 01:13:36;;;;;;;7.38;6.22;;;12.80;99.90;;;;;;5058535;28;20029;-75
2022/05/10 01:16:09;;;;;;;8.82;7.13;;;12.70;99.90;;;;;;5057735;28;20171;-74
2022/05/10 01:18:36;;;;;;;7.95;6.88;;;12.60;99.90;;;;;;5054349;28;20029;-74
2022/05/10 01:21:23;;;;;;;8.07;7.18;;;12.50;99.90;;;;;;5051295;28;20035;-74
2022/05/10 01:24:18;;;;;;;8.88;7.80;;;12.40;99.90;;;;;;5061859;28;20487;-75
2022/05/10 01:27:19;;;;;;;8.52;7.53;;;12.30;99.90;;;;;;5059334;28;20069;-75
2022/05/10 01:30:08;;;;;;;9.30;6.90;;;12.10;99.90;;;;;;4994943;28;20030;-75
2022/05/10 01:35:45;;;;;;;9.77;7.22;;;12.20;99.90;;;;;;5064999;28;20090;-76
2022/05/10 01:38:23;;;;;;;8.00;7.30;;;12.10;99.90;;;;;;5051647;28;20025;-75
2022/05/10 01:40:53;;;;;;;8.90;7.28;;;12.00;99.90;;;;;;5062975;28;20490;-74
2022/05/10 01:43:41;;;;;;;8.68;7.78;;;12.00;99.90;;;;;;5061108;28;20032;-74
2022/05/10 01:46:15;;;;;;;7.57;6.88;;;12.00;99.90;;;;;;5058786;28;20025;-74
2022/05/10 01:48:44;;;;;;;10.32;7.43;;;12.00;99.90;;;;;;5071373;28;20020;-75
2022/05/10 01:51:34;;;;;;;9.18;7.50;;;12.00;99.90;;;;;;5067312;28;20493;-76
2022/05/10 01:54:01;;;;;;;8.85;7.93;;;11.90;99.90;;;;;;5078539;28;20569;-75
2022/05/10 01:56:28;;;;;;;8.18;7.38;;;11.80;99.90;;;;;;5058024;28;20025;-77
2022/05/10 01:58:55;;;;;;;9.20;7.43;;;11.90;99.90;;;;;;5065710;28;20031;-76
2022/05/10 02:01:32;;;;;;;8.07;7.22;;;11.80;99.90;;;;;;5070296;28;20449;-76
2022/05/10 02:04:16;;;;;;;8.00;7.20;;;11.80;99.90;;;;;;5063904;28;20037;-75
2022/05/10 02:06:51;;;;;;;8.32;7.53;;;11.80;99.90;;;;;;5064704;28;20025;-75
2022/05/10 02:09:31;;;;;;;8.15;7.30;;;11.80;99.90;;;;;;5063564;28;20017;-76
2022/05/10 02:12:07;;;;;;;11.55;7.70;;;11.70;99.90;;;;;;5061057;28;20092;-76
2022/05/10 02:14:35;;;;;;;8.35;6.95;;;11.70;99.90;;;;;;5062445;28;20017;-77
2022/05/10 02:17:10;;;;;;;9.00;7.43;;;11.60;99.90;;;;;;5070761;28;20052;-76
2022/05/10 02:19:47;;;;;;;8.50;7.50;;;11.70;99.90;;;;;;5065185;28;20496;-77
2022/05/10 02:22:22;;;;;;;7.95;7.25;;;11.70;99.90;;;;;;5070830;28;20029;-77
2022/05/10 02:25:16;;;;;;;8.52;7.72;;;11.60;99.90;;;;;;5067420;28;20715;-76
2022/05/10 02:27:48;;;;;;;9.93;8.75;;;11.50;99.90;;;;;;5053946;28;20112;-76
2022/05/10 02:30:17;;;;;;;9.15;8.07;;;11.40;99.90;;;;;;5062264;28;20043;-76
2022/05/10 02:33:08;;;;;;;10.15;8.55;;;11.40;99.90;;;;;;5067354;28;20029;-77
2022/05/10 02:35:50;;;;;;;9.82;8.38;;;11.40;99.90;;;;;;5073938;28;20024;-77
2022/05/10 02:38:19;;;;;;;9.85;8.40;;;11.40;99.90;;;;;;5066088;28;20497;-76
2022/05/10 02:40:46;;;;;;;10.10;9.10;;;11.30;99.90;;;;;;5066409;28;20029;-76
2022/05/10 02:43:20;;;;;;;10.50;8.75;;;11.30;99.90;;;;;;5062900;28;20524;-77
2022/05/10 02:45:46;;;;;;;10.00;9.05;;;11.40;99.90;;;;;;5061321;28;20017;-76
2022/05/10 02:48:14;;;;;;;9.18;8.25;;;11.50;99.90;;;;;;5063970;28;20036;-76
2022/05/10 02:50:40;;;;;;;10.90;9.18;;;11.50;99.90;;;;;;5066049;28;20028;-76
2022/05/10 02:53:05;;;;;;;10.18;9.18;;;11.60;99.90;;;;;;5065269;28;20028;-76
2022/05/10 02:55:57;;;;;;;11.02;9.05;;;11.50;99.90;;;;;;5059738;28;20059;-76
2022/05/10 02:58:29;;;;;;;9.73;8.82;;;11.50;99.90;;;;;;5061050;28;20025;-75
2022/05/10 03:01:04;;;;;;;10.30;8.88;;;11.40;99.90;;;;;;5073934;28;20028;-75
2022/05/10 03:03:30;;;;;;;9.48;8.57;;;11.40;99.90;;;;;;5078165;28;20830;-76
2022/05/10 03:05:55;;;;;;;10.68;9.75;;;11.40;99.90;;;;;;5072003;28;20115;-75
2022/05/10 03:08:22;;;;;;;11.38;10.20;;;11.30;99.90;;;;;;5068081;28;20115;-76
2022/05/10 03:10:47;;;;;;;10.48;9.48;;;11.20;99.90;;;;;;5063552;28;20025;-76
2022/05/10 03:13:13;;;;;;;9.98;9.05;;;11.30;99.90;;;;;;5061014;28;20031;-76
2022/05/10 03:15:39;;;;;;;10.88;9.35;;;11.40;99.90;;;;;;5064025;28;20025;-76
2022/05/10 03:18:05;;;;;;;9.93;9.00;;;11.40;99.90;;;;;;5059493;28;20134;-76
2022/05/10 03:20:30;;;;;;;10.23;9.23;;;11.40;99.90;;;;;;5061829;28;20036;-75
2022/05/10 03:22:56;;;;;;;11.15;9.57;;;11.50;99.90;;;;;;5066268;28;20020;-76
2022/05/10 03:25:21;;;;;;;10.80;9.75;;;11.40;99.90;;;;;;5062247;28;20040;-76
2022/05/10 03:27:48;;;;;;;11.07;9.95;;;11.30;99.90;;;;;;5056669;28;20383;-75
2022/05/10 03:30:14;;;;;;;11.32;9.65;;;11.30;99.90;;;;;;5063144;28;20024;-75
2022/05/10 03:32:40;;;;;;;9.95;8.88;;;11.20;99.90;;;;;;5080731;28;20021;-76
2022/05/10 03:35:06;;;;;;;11.20;10.00;;;11.10;99.90;;;;;;5064012;28;20029;-77
2022/05/10 03:37:31;;;;;;;10.43;9.32;;;11.00;99.90;;;;;;5065915;28;20036;-76
2022/05/10 03:39:59;;;;;;;10.27;9.38;;;11.10;99.90;;;;;;5061979;28;20082;-76
2022/05/10 03:42:25;;;;;;;10.27;9.20;;;11.00;99.90;;;;;;5060089;28;20020;-76
2022/05/10 03:44:52;;;;;;;10.70;9.60;;;10.90;99.90;;;;;;5064311;28;20104;-77
2022/05/10 03:47:19;;;;;;;10.10;9.20;;;10.90;99.90;;;;;;5067732;28;20023;-76
2022/05/10 03:49:45;;;;;;;10.43;9.43;;;10.90;99.90;;;;;;5062651;28;20052;-76
2022/05/10 03:52:12;;;;;;;10.45;9.25;;;10.90;99.90;;;;;;5054567;28;20029;-76
2022/05/10 03:54:38;;;;;;;10.68;9.57;;;10.90;99.90;;;;;;5056581;28;20031;-75
2022/05/10 03:57:05;;;;;;;10.48;9.57;;;10.90;99.90;;;;;;5070475;28;20406;-76
2022/05/10 03:59:31;;;;;;;10.07;9.07;;;10.90;99.90;;;;;;5056939;28;20501;-75
2022/05/10 04:01:57;;;;;;;10.65;9.68;;;11.00;99.90;;;;;;5078020;28;20024;-75
2022/05/10 04:04:23;;;;;;;9.70;8.68;;;11.00;99.90;;;;;;5060979;28;20040;-76
2022/05/10 04:06:48;;;;;;;10.27;9.38;;;11.00;99.90;;;;;;5065281;28;20025;-74
2022/05/10 04:09:16;;;;;;;11.70;10.50;;;10.90;99.90;;;;;;5053206;28;20108;-76
2022/05/10 04:11:42;;;;;;;11.43;10.30;;;10.80;99.90;;;;;;5064763;28;20107;-76
2022/05/10 04:14:07;;;;;;;12.52;11.25;;;10.70;99.90;;;;;;5079826;28;20547;-75
2022/05/10 04:16:33;;;;;;;13.10;11.90;;;10.70;99.90;;;;;;5059469;28;20099;-74
2022/05/10 04:18:58;;;;;;;12.13;10.82;;;10.70;99.90;;;;;;5062557;28;20074;-74
2022/05/10 04:21:24;;;;;;;10.32;9.43;;;10.90;99.90;;;;;;5052286;28;20033;-75
2022/05/10 04:23:50;;;;;;;12.23;11.00;;;11.00;99.90;;;;;;5057779;28;20029;-75
2022/05/10 04:26:19;;;;;;;10.98;10.00;;;11.10;99.90;;;;;;5052898;28;20106;-75
2022/05/10 04:28:44;;;;;;;11.10;10.00;;;11.10;99.90;;;;;;5063207;28;20103;-74
2022/05/10 04:31:10;;;;;;;11.63;10.52;;;11.10;99.90;;;;;;5058288;28;20171;-75
2022/05/10 04:33:36;;;;;;;14.60;13.10;;;11.20;99.90;;;;;;5060306;28;20025;-75
2022/05/10 04:36:02;;;;;;;15.82;14.23;;;10.80;99.90;;;;;;5064529;28;20039;-75
2022/05/10 04:38:28;;;;;;;13.75;12.48;;;10.60;99.90;;;;;;5063207;28;20115;-75
2022/05/10 04:43:38;;;;;;;12.40;11.10;;;10.90;99.90;;;;;;5063087;28;20032;-75
2022/05/10 04:46:05;;;;;;;12.05;10.75;;;11.10;99.90;;;;;;5069044;28;20429;-75
2022/05/10 04:48:30;;;;;;;12.02;10.73;;;11.40;99.90;;;;;;5076395;28;20048;-75
2022/05/10 04:50:56;;;;;;;11.57;10.43;;;11.40;99.90;;;;;;5060324;28;20048;-75
2022/05/10 04:53:22;;;;;;;13.10;10.63;;;11.50;99.90;;;;;;5059089;28;20044;-75
2022/05/10 04:55:50;;;;;;;11.82;10.63;;;11.70;99.90;;;;;;5065326;28;20033;-75
2022/05/10 04:58:16;;;;;;;11.73;10.38;;;11.90;99.90;;;;;;5069109;28;20027;-76
2022/05/10 05:00:41;;;;;;;12.13;10.98;;;12.00;99.90;;;;;;5063916;28;20090;-76
2022/05/10 05:03:07;;;;;;;10.90;9.90;;;12.20;99.90;;;;;;5057242;28;20119;-76
2022/05/10 05:05:33;;;;;;;13.80;12.40;;;12.30;99.90;;;;;;5058899;28;20421;-76
2022/05/10 05:07:58;;;;;;;13.63;12.23;;;12.30;99.90;;;;;;5072147;28;20111;-75
2022/05/10 05:10:24;;;;;;;14.45;13.15;;;12.20;99.90;;;;;;5071526;28;20020;-75
2022/05/10 05:12:50;;;;;;;15.10;13.70;;;12.10;99.90;;;;;;5058820;28;20028;-76
2022/05/10 05:15:16;;;;;;;13.57;12.27;;;11.90;99.90;;;;;;5065615;28;20606;-76
2022/05/10 05:17:42;;;;;;;15.48;13.85;;;11.90;99.90;;;;;;5063203;28;20058;-76
2022/05/10 05:20:08;;;;;;;15.68;14.27;;;11.90;99.90;;;;;;5057054;28;20024;-76
2022/05/10 05:22:34;;;;;;;15.82;14.30;;;12.20;99.90;;;;;;5057298;28;20029;-76
2022/05/10 05:25:00;;;;;;;13.75;12.38;;;12.50;99.90;;;;;;5065158;28;20634;-76
2022/05/10 05:27:25;;;;;;;14.68;13.27;;;12.50;99.90;;;;;;5062791;28;20028;-76
2022/05/10 05:29:51;;;;;;;13.95;12.65;;;12.40;99.90;;;;;;5052518;28;20494;-76
2022/05/10 05:32:21;;;;;;;15.43;14.00;;;12.40;99.90;;;;;;5064549;28;20485;-76
2022/05/10 05:34:46;;;;;;;15.25;13.85;;;12.30;99.90;;;;;;5053727;28;20025;-75
2022/05/10 05:39:57;;;;;;;13.07;11.90;;;12.50;99.90;;;;;;5055018;28;20036;-76
2022/05/10 05:42:23;;;;;;;20.17;12.80;;;12.80;99.90;;;;;;5068507;28;20020;-75
2022/05/10 05:44:50;;;;;;;13.20;11.18;;;13.10;99.90;;;;;;5058708;28;20035;-72
2022/05/10 05:47:15;;;;;;;13.13;11.02;;;13.30;99.90;;;;;;5069192;28;20112;-75
2022/05/10 05:49:41;;;;;;;12.25;11.05;;;13.60;99.90;;;;;;5059077;28;20103;-75
2022/05/10 05:52:07;;;;;;;11.70;10.50;;;13.90;99.90;;;;;;5057658;28;20021;-76
2022/05/10 05:54:33;;;;;;;11.50;10.50;;;14.00;99.90;;;;;;5062658;28;20028;-76
2022/05/10 05:57:00;;;;;;;13.43;10.43;;;14.20;99.90;;;;;;5050120;28;20028;-76
2022/05/10 05:59:26;;;;;;;11.00;9.95;;;14.40;99.90;;;;;;5060213;28;20020;-75
2022/05/10 06:01:52;;;;;;;11.40;10.25;;;14.50;99.90;;;;;;5083346;28;20017;-75
2022/05/10 06:04:18;;;;;;;10.63;9.15;;;14.50;99.90;;;;;;5060019;28;20037;-75
2022/05/10 06:06:43;;;;;;;10.10;9.20;;;14.70;99.90;;;;;;5051155;28;20087;-76
2022/05/10 06:09:10;;;;;;;10.98;9.98;;;14.70;99.90;;;;;;5060776;28;20406;-75
2022/05/10 06:11:35;;;;;;;11.63;9.93;;;14.80;99.90;;;;;;5057154;28;20020;-75
2022/05/10 06:14:01;;;;;;;10.70;9.63;;;14.90;99.90;;;;;;5061909;28;20043;-76
2022/05/10 06:16:28;;;;;;;11.65;10.48;;;15.20;99.90;;;;;;5064712;28;20056;-76
2022/05/10 06:18:54;;;;;;;11.05;10.05;;;15.30;99.90;;;;;;5060476;28;20429;-75
2022/05/10 06:21:20;;;;;;;11.30;10.20;;;15.40;99.90;;;;;;5056802;28;20036;-76
2022/05/10 06:23:45;;;;;;;12.88;10.25;;;15.40;99.90;;;;;;5061747;28;20021;-76
2022/05/10 06:26:11;;;;;;;10.43;9.38;;;15.50;99.90;;;;;;5076828;28;20454;-75
2022/05/10 06:28:37;;;;;;;10.40;9.35;;;15.70;99.90;;;;;;5080763;28;20024;-75
2022/05/10 06:31:06;;;;;;;10.27;9.27;;;15.80;99.90;;;;;;5068130;28;20500;-76
2022/05/10 06:33:32;;;;;;;9.80;8.90;;;15.90;99.90;;;;;;5049828;28;20063;-76
2022/05/10 06:35:58;;;;;;;10.18;9.20;;;16.00;99.90;;;;;;5051162;28;20052;-76
2022/05/10 06:38:29;;;;;;;11.38;9.98;;;16.00;99.90;;;;;;5060684;28;20025;-76
2022/05/10 06:40:56;;;;;;;12.10;9.18;;;16.20;99.90;;;;;;5055661;28;20474;-76
2022/05/10 06:43:22;;;;;;;10.23;9.23;;;16.30;99.90;;;;;;5059535;28;20025;-75
2022/05/10 06:45:49;;;;;;;9.85;8.95;;;16.40;99.90;;;;;;5068100;28;20097;-75
2022/05/10 06:48:16;;;;;;;11.77;9.63;;;16.50;99.90;;;;;;5060814;28;20056;-76
2022/05/10 06:50:42;;;;;;;10.32;9.40;;;16.60;99.90;;;;;;5052491;28;20021;-75
2022/05/10 06:53:08;;;;;;;10.00;9.10;;;16.70;99.90;;;;;;5060585;28;20098;-75
2022/05/10 06:55:35;;;;;;;11.68;10.40;;;16.60;99.90;;;;;;5065300;28;20025;-75
2022/05/10 06:58:02;;;;;;;10.25;9.25;;;16.80;99.90;;;;;;5064942;28;20063;-75
2022/05/10 07:00:30;;;;;;;10.80;9.80;;;17.00;99.90;;;;;;5060203;28;20393;-75
2022/05/10 07:02:56;;;;;;;10.18;9.13;;;17.10;99.90;;;;;;5060957;28;20025;-75
2022/05/10 07:05:22;;;;;;;9.70;8.70;;;17.20;99.90;;;;;;5072824;28;20029;-75
2022/05/10 07:07:48;;;;;;;9.45;8.55;;;17.40;99.90;;;;;;5089427;28;20032;-75
2022/05/10 07:10:16;;;;;;;13.48;8.60;;;17.50;99.90;;;;;;5069431;28;20024;-75
2022/05/10 07:12:43;;;;;;;13.55;9.30;;;17.60;99.90;;;;;;5065576;28;20024;-76
2022/05/10 07:15:14;;;;;;;9.40;8.50;;;17.80;99.90;;;;;;5069783;28;20024;-76
2022/05/10 07:17:39;;;;;;;8.98;8.10;;;18.00;99.90;;;;;;5060596;28;20021;-75
2022/05/10 07:20:07;;;;;;;9.65;8.60;;;18.10;99.90;;;;;;5067199;28;20475;-76
2022/05/10 07:22:33;;;;;;;10.57;8.38;;;18.10;99.90;;;;;;5066836;28;20115;-76
2022/05/10 07:24:58;;;;;;;9.38;8.43;;;18.20;99.90;;;;;;5059321;28;20562;-76
2022/05/10 07:27:23;;;;;;;8.48;7.75;;;18.30;99.90;;;;;;5060385;28;20052;-76
2022/05/10 07:29:49;;;;;;;10.02;9.02;;;18.30;99.90;;;;;;5067283;28;20070;-76
2022/05/10 07:32:15;;;;;;;8.85;8.13;;;18.40;99.90;;;;;;5066603;28;20024;-76
2022/05/10 07:34:42;;;;;;;9.70;8.77;;;18.50;99.90;;;;;;5067109;28;20032;-75
2022/05/10 07:37:08;;;;;;;8.63;7.82;;;18.60;99.90;;;;;;5066986;28;20598;-76
2022/05/10 07:39:34;;;;;;;8.90;8.00;;;18.70;99.90;;;;;;5059399;28;20035;-76
2022/05/10 07:42:03;;;;;;;9.43;8.55;;;18.70;99.90;;;;;;5059891;28;20475;-76
2022/05/10 07:44:29;;;;;;;10.07;8.35;;;18.60;99.90;;;;;;5066133;28;20497;-76
2022/05/10 07:46:55;;;;;;;9.00;8.13;;;18.60;99.90;;;;;;5066992;28;20492;-76
2022/05/10 07:49:20;;;;;;;10.75;8.00;;;18.70;99.90;;;;;;5059811;28;20032;-76
2022/05/10 07:51:46;;;;;;;9.88;7.93;;;18.80;99.90;;;;;;5059567;28;20028;-76
2022/05/10 07:54:11;;;;;;;8.50;7.40;;;19.10;99.90;;;;;;5067555;28;20532;-76
2022/05/10 07:56:38;;;;;;;8.35;7.55;;;19.20;99.90;;;;;;5058560;28;20544;-76
2022/05/10 07:59:04;;;;;;;10.20;7.97;;;19.30;99.90;;;;;;5066209;28;20060;-75
2022/05/10 08:01:29;;;;;;;9.18;8.30;;;19.40;99.90;;;;;;5052498;28;20025;-76
2022/05/10 08:03:55;;;;;;;8.15;7.35;;;19.60;99.90;;;;;;5052617;28;20086;-76
2022/05/10 08:06:21;;;;;;;13.63;8.13;;;19.70;99.90;;;;;;5081538;28;20465;-75
2022/05/10 08:08:46;;;;;;;9.07;8.15;;;19.70;99.90;;;;;;5065349;28;20033;-76
2022/05/10 08:11:13;;;;;;;8.45;7.65;;;19.60;99.90;;;;;;5065553;28;20043;-76
2022/05/10 08:13:39;;;;;;;11.60;7.43;;;19.70;99.90;;;;;;5066664;28;20025;-76
2022/05/10 08:16:08;;;;;;;8.63;7.75;;;19.80;99.90;;;;;;5053113;28;20092;-76
2022/05/10 08:18:35;;;;;;;10.45;7.28;;;20.10;99.90;;;;;;5051829;28;20108;-75
2022/05/10 08:21:00;;;;;;;8.02;7.30;;;20.30;99.90;;;;;;5064437;28;20020;-76
2022/05/10 08:23:29;;;;;;;10.13;7.15;;;20.40;99.90;;;;;;5059675;28;20028;-76
2022/05/10 08:25:56;;;;;;;13.30;7.40;;;20.30;99.90;;;;;;5071501;28;20021;-76
2022/05/10 08:28:23;;;;;;;9.43;7.15;;;20.20;99.90;;;;;;5069029;28;20039;-76
2022/05/10 08:30:49;;;;;;;10.10;7.80;;;20.10;99.90;;;;;;5058731;28;20029;-76
2022/05/10 08:33:19;;;;;;;8.27;7.45;;;19.90;99.90;;;;;;5065222;28;20021;-76
2022/05/10 08:35:47;;;;;;;8.57;7.63;;;20.00;99.90;;;;;;5068137;28;20023;-76
2022/05/10 08:38:12;;;;;;;8.00;7.20;;;20.00;99.90;;;;;;5060564;28;20566;-76
2022/05/10 08:40:53;;;;;;;9.57;7.38;;;20.20;99.90;;;;;;5055976;28;20111;-76
2022/05/10 08:43:41;;;;;;;7.95;7.13;;;20.20;99.90;;;;;;5062355;28;20395;-75
2022/05/10 08:46:11;;;;;;;8.43;7.18;;;20.40;99.90;;;;;;5064354;28;20029;-75
2022/05/10 08:48:37;;;;;;;7.93;7.18;;;20.60;99.90;;;;;;5064626;28;20047;-76
2022/05/10 08:51:03;;;;;;;9.05;7.20;;;20.70;99.90;;;;;;5058218;28;20063;-76
2022/05/10 08:53:31;;;;;;;9.52;7.28;;;20.70;99.90;;;;;;5059197;28;20035;-76
2022/05/10 08:56:02;;;;;;;8.45;7.65;;;21.00;99.90;;;;;;5061240;28;20024;-76
2022/05/10 08:59:02;;;;;;;11.45;7.97;;;20.90;99.90;;;;;;5057474;28;20025;-76
2022/05/10 09:01:31;;;;;;;10.02;7.85;;;20.50;99.90;;;;;;5043969;28;20044;-76
2022/05/10 09:04:24;;;;;;;8.23;7.13;;;20.70;99.90;;;;;;5054301;28;20037;-73
2022/05/10 09:07:17;;;;;;;12.38;8.20;;;20.90;99.90;;;;;;5051954;28;20491;-76
2022/05/10 09:09:49;;;;;;;9.82;7.60;;;21.00;99.90;;;;;;5051723;28;20029;-76
2022/05/10 09:12:24;;;;;;;8.65;7.50;;;21.20;99.90;;;;;;5061677;28;20107;-76
2022/05/10 09:14:59;;;;;;;9.25;7.65;;;21.50;99.90;;;;;;5065257;28;20033;-77
2022/05/10 09:17:29;;;;;;;24.63;8.10;;;21.40;99.90;;;;;;5051676;28;20025;-76
2022/05/10 09:19:55;;;;;;;8.90;6.45;;;21.60;99.90;;;;;;5051649;28;20021;-76
2022/05/10 09:22:24;;;;;;;8.43;7.20;;;21.80;99.90;;;;;;5062820;28;20029;-76
2022/05/10 09:24:53;;;;;;;12.70;7.53;;;21.80;99.90;;;;;;5065239;28;20478;-76
2022/05/10 09:27:21;;;;;;;7.78;6.82;;;21.90;99.90;;;;;;5062932;28;20031;-76
2022/05/10 09:29:52;;;;;;;7.53;6.72;;;21.50;99.90;;;;;;5057001;28;20021;-76
2022/05/10 09:35:19;;;;;;;8.70;6.80;;;21.10;99.90;;;;;;5062215;28;20112;-76
2022/05/10 09:37:52;;;;;;;7.05;6.40;;;21.70;99.90;;;;;;5058520;28;20490;-76
2022/05/10 09:40:32;;;;;;;7.60;6.45;;;22.00;99.90;;;;;;5059467;28;20028;-76
2022/05/10 09:43:11;;;;;;;7.78;6.43;;;22.20;99.90;;;;;;5059169;28;20020;-75
2022/05/10 09:45:39;;;;;;;7.80;6.43;;;22.50;99.90;;;;;;5057225;28;20021;-76
2022/05/10 09:48:07;;;;;;;11.57;6.15;;;22.60;99.90;;;;;;5065199;28;20132;-76
2022/05/10 09:50:45;;;;;;;8.00;7.00;;;22.80;99.90;;;;;;5050932;28;20021;-76
2022/05/10 09:53:18;;;;;;;8.82;6.60;;;22.60;99.90;;;;;;5061401;28;20062;-76
2022/05/10 09:56:00;;;;;;;6.80;6.20;;;22.60;99.90;;;;;;5056583;28;20043;-75
2022/05/10 09:58:33;;;;;;;7.38;6.15;;;22.80;99.90;;;;;;5058200;28;20025;-75
2022/05/10 10:01:03;;;;;;;10.20;6.40;;;23.00;99.90;;;;;;5060500;28;20025;-75
2022/05/10 10:03:32;;;;;;;8.50;6.68;;;22.90;99.90;;;;;;5063248;28;20029;-75
2022/05/10 10:06:17;;;;;;;7.93;5.97;;;22.60;99.90;;;;;;5051354;28;20021;-75
2022/05/10 10:08:49;;;;;;;10.20;6.70;;;23.00;99.90;;;;;;5057491;28;20025;-75
2022/05/10 10:11:28;;;;;;;7.57;6.03;;;23.20;99.90;;;;;;5055984;28;20025;-75
2022/05/10 10:14:09;;;;;;;8.77;6.28;;;23.10;99.90;;;;;;5051584;28;20029;-77
2022/05/10 10:16:48;;;;;;;8.18;5.95;;;22.70;99.90;;;;;;5053927;28;20056;-77
2022/05/10 10:19:22;;;;;;;7.80;5.95;;;22.80;99.90;;;;;;5059104;28;20017;-75
2022/05/10 10:22:02;;;;;;;6.97;6.05;;;22.70;99.90;;;;;;5057655;28;20036;-75
2022/05/10 10:24:36;;;;;;;7.72;6.38;;;22.70;99.90;;;;;;5056162;28;20475;-76
2022/05/10 10:27:08;;;;;;;6.93;5.72;;;22.30;99.90;;;;;;5061517;28;20128;-76
2022/05/10 10:29:39;;;;;;;7.32;5.90;;;21.90;99.90;;;;;;5068635;28;20496;-75
2022/05/10 10:32:15;;;;;;;7.93;6.20;;;21.80;99.90;;;;;;5073069;28;20020;-76
2022/05/10 10:34:54;;;;;;;7.43;5.95;;;22.50;99.90;;;;;;5069233;28;20025;-76
2022/05/10 10:37:38;;;;;;;6.88;5.53;;;22.80;99.90;;;;;;5055729;28;20506;-76
2022/05/10 10:40:34;;;;;;;6.85;5.90;;;22.70;99.90;;;;;;5063742;28;20033;-76
2022/05/10 10:43:29;;;;;;;6.85;5.70;;;22.20;99.90;;;;;;5060317;28;20440;-75
2022/05/10 10:46:07;;;;;;;5.90;5.40;;;21.70;99.90;;;;;;5040358;28;20052;-75
2022/05/10 10:48:49;;;;;;;6.72;6.03;;;21.60;99.90;;;;;;5061898;28;20021;-75
2022/05/10 10:51:15;;;;;;;6.43;5.85;;;22.50;99.90;;;;;;5062299;28;20032;-75
2022/05/10 10:53:43;;;;;;;6.50;5.90;;;22.80;99.90;;;;;;5059483;28;20064;-76
2022/05/10 10:56:20;;;;;;;7.95;6.38;;;22.50;99.90;;;;;;5054561;28;20032;-76
2022/05/10 10:58:52;;;;;;;6.55;5.80;;;22.30;99.90;;;;;;5057976;28;20028;-75
2022/05/10 11:01:44;;;;;;;6.63;5.47;;;22.00;99.90;;;;;;5061181;28;20029;-75
2022/05/10 11:04:39;;;;;;;5.68;5.10;;;22.10;99.90;;;;;;5062891;28;20441;-75
2022/05/10 11:07:27;;;;;;;5.90;5.40;;;22.50;99.90;;;;;;5059623;28;20020;-76
2022/05/10 11:10:04;;;;;;;6.15;5.55;;;22.80;99.90;;;;;;5058207;28;20029;-75
2022/05/10 11:12:37;;;;;;;6.65;5.47;;;22.90;99.90;;;;;;5053691;28;20104;-75
2022/05/10 11:15:32;;;;;;;8.75;5.53;;;23.60;99.90;;;;;;5059578;28;20046;-75
2022/05/10 11:18:30;;;;;;;9.88;5.38;;;24.20;99.90;;;;;;5058648;28;20522;-75
2022/05/10 11:21:21;;;;;;;6.25;5.50;;;25.20;99.90;;;;;;5052285;28;20028;-75
2022/05/10 11:24:14;;;;;;;7.25;5.53;;;24.80;99.90;;;;;;5080789;28;20029;-76
2022/05/10 11:26:46;;;;;;;6.50;5.80;;;23.80;99.90;;;;;;5056459;28;20028;-75
2022/05/10 11:29:17;;;;;;;5.97;5.38;;;23.60;99.90;;;;;;5052986;28;20025;-76
2022/05/10 11:32:07;;;;;;;7.65;5.32;;;24.40;99.90;;;;;;5063906;28;20391;-75
2022/05/10 11:34:44;;;;;;;6.07;5.57;;;24.60;99.90;;;;;;5080290;28;20050;-75
2022/05/10 11:37:15;;;;;;;7.88;5.35;;;23.90;99.90;;;;;;5085253;28;20506;-74
2022/05/10 11:40:15;;;;;;;5.80;5.20;;;23.60;99.90;;;;;;5064640;28;20070;-75
2022/05/10 11:42:43;;;;;;;6.82;5.30;;;24.30;99.90;;;;;;5073806;28;20025;-74
2022/05/10 11:45:36;;;;;;;6.13;5.05;;;24.40;99.90;;;;;;5060377;28;20450;-75
2022/05/10 11:48:15;;;;;;;8.63;5.20;;;24.00;99.90;;;;;;5081595;28;20020;-75
2022/05/10 11:54:46;;;;;;;;;;;;;;;;;;;;;
2022/05/10 11:57:29;;;;;;;5.90;5.25;;;24.20;99.50;;;;;;5061841;28;20029;-75
2022/05/10 12:00:40;;;;;;;5.15;4.75;;;25.40;99.50;;;;;;5060877;28;20620;-75
2022/05/10 12:03:41;;;;;;;6.82;4.65;;;26.10;99.90;;;;;;5061061;28;20039;-75
2022/05/10 12:06:24;;;;;;;7.60;4.90;;;25.90;97.70;;;;;;5066689;28;20024;-74
2022/05/10 12:09:06;;;;;;;5.30;4.80;;;24.70;97.30;;;;;;5051971;28;20400;-74
2022/05/10 12:11:41;;;;;;;5.22;4.72;;;23.70;97.90;;;;;;5073223;28;20012;-75
2022/05/10 12:21:24;;;;;;;5.95;4.93;;;23.40;98.60;;;;;;5075700;28;20036;-74
2022/05/10 12:24:14;;;;;;;6.20;4.97;;;23.30;99.40;;;;;;5069774;28;20092;-75
2022/05/10 12:26:48;;;;;;;8.65;5.47;;;23.30;99.90;;;;;;5078983;28;20116;-76
2022/05/10 12:30:08;;;;;;;5.90;5.32;;;23.30;99.90;;;;;;5081795;28;20020;-76
2022/05/10 12:32:55;;;;;;;6.78;5.22;;;23.50;99.90;;;;;;5062560;28;20025;-75
2022/05/10 12:35:32;;;;;;;6.57;5.10;;;23.50;99.20;;;;;;5076264;28;20016;-75
2022/05/10 12:38:03;;;;;;;6.38;5.80;;;23.70;99.90;;;;;;5082674;28;20025;-75
2022/05/10 12:40:51;;;;;;;5.97;5.35;;;23.80;99.90;;;;;;5069476;28;20403;-75
2022/05/10 12:44:07;;;;;;;6.32;5.60;;;23.90;99.90;;;;;;5059531;28;20112;-76
2022/05/10 12:47:05;;;;;;;7.82;5.50;;;24.20;99.60;;;;;;5058193;28;20178;-75
2022/05/10 12:50:22;;;;;;;8.15;5.80;;;24.10;98.40;;;;;;5051036;28;20025;-75
2022/05/10 12:53:26;;;;;;;5.45;4.95;;;24.50;99.60;;;;;;5051519;28;20017;-75
2022/05/10 12:56:29;;;;;;;5.72;5.22;;;24.50;99.60;;;;;;5015694;28;20120;-75
2022/05/10 12:59:39;;;;;;;6.20;5.60;;;24.50;97.80;;;;;;5067847;28;20121;-75
2022/05/10 13:02:49;;;;;;;6.97;5.53;;;24.70;99.60;;;;;;5073813;28;20079;-75
2022/05/10 13:06:15;;;;;;;;;;;;;;;;;;;;;
2022/05/10 13:09:26;;;;;;;6.35;5.53;;;25.70;99.20;;;;;;5051947;28;20370;-75
2022/05/10 13:16:42;;;;;;;;;;;;;;;;;;;;;
2022/05/10 13:19:08;;;;;;;6.38;5.75;;;25.30;96.60;;;;;;5051769;28;20123;-75
2022/05/10 13:21:34;;;;;;;8.82;5.65;;;26.20;98.50;;;;;;5050828;28;20114;-74
2022/05/10 13:24:07;;;;;;;5.80;5.30;;;27.20;96.50;;;;;;5053826;28;20505;-76
2022/05/10 13:26:33;;;;;;;6.78;5.40;;;27.70;97.10;;;;;;5070606;28;20431;-76
2022/05/10 13:29:00;;;;;;;13.40;6.85;;;26.20;94.80;;;;;;5083252;28;20264;-76
2022/05/10 13:31:35;;;;;;;6.28;5.25;;;26.30;96.70;;;;;;5064230;28;20023;-76
2022/05/10 13:34:12;;;;;;;6.20;5.60;;;26.70;95.20;;;;;;5051326;28;20454;-72
2022/05/10 13:36:38;;;;;;;8.93;5.78;;;26.70;94.70;;;;;;5051690;28;20487;-72
2022/05/10 13:39:04;;;;;;;5.85;5.10;;;26.70;96.60;;;;;;5051530;28;20474;-72
2022/05/10 13:41:33;;;;;;;8.77;5.78;;;27.10;95.50;;;;;;5049580;28;20059;-72
2022/05/10 13:44:10;;;;;;;5.68;5.10;;;27.30;95.70;;;;;;5051369;28;20755;-72